sensor_id;sensor_type;location;lat;lon;timestamp;P1;durP1;ratioP1;P2;durP2;ratioP2
77038;SDS011;65970;50.476;4.840;2024-02-21T00:03:39;6.25;;;3.10;;
77038;SDS011;65970;50.476;4.840;2024-02-21T00:08:40;7.13;;;3.35;;
77038;SDS011;65970;50.476;4.840;2024-02-21T00:13:40;7.18;;;2.72;;
77038;SDS011;65970;50.476;4.840;2024-02-21T00:18:41;7.03;;;3.10;;
77038;SDS011;65970;50.476;4.840;2024-02-21T00:23:41;7.90;;;2.83;;
77038;SDS011;65970;50.476;4.840;2024-02-21T00:28:42;5.68;;;2.88;;
77038;SDS011;65970;50.476;4.840;2024-02-21T00:33:42;5.38;;;2.78;;
77038;SDS011;65970;50.476;4.840;2024-02-21T00:38:43;8.57;;;2.47;;
77038;SDS011;65970;50.476;4.840;2024-02-21T00:43:43;5.68;;;2.30;;
77038;SDS011;65970;50.476;4.840;2024-02-21T00:48:44;7.85;;;3.38;;
77038;SDS011;65970;50.476;4.840;2024-02-21T00:53:44;4.68;;;2.42;;
77038;SDS011;65970;50.476;4.840;2024-02-21T00:58:45;9.00;;;2.97;;
77038;SDS011;65970;50.476;4.840;2024-02-21T01:03:45;6.30;;;2.50;;
77038;SDS011;65970;50.476;4.840;2024-02-21T01:08:49;7.78;;;3.35;;
77038;SDS011;65970;50.476;4.840;2024-02-21T01:18:50;5.82;;;3.40;;
77038;SDS011;65970;50.476;4.840;2024-02-21T01:23:50;6.25;;;3.08;;
77038;SDS011;65970;50.476;4.840;2024-02-21T01:28:51;6.55;;;2.72;;
77038;SDS011;65970;50.476;4.840;2024-02-21T01:33:51;6.00;;;2.95;;
77038;SDS011;65970;50.476;4.840;2024-02-21T01:38:52;3.63;;;2.20;;
77038;SDS011;65970;50.476;4.840;2024-02-21T01:43:52;4.15;;;2.28;;
77038;SDS011;65970;50.476;4.840;2024-02-21T01:48:54;6.82;;;2.40;;
77038;SDS011;65970;50.476;4.840;2024-02-21T01:53:55;6.07;;;2.63;;
77038;SDS011;65970;50.476;4.840;2024-02-21T01:58:57;8.63;;;2.72;;
77038;SDS011;65970;50.476;4.840;2024-02-21T02:03:58;5.28;;;2.10;;
77038;SDS011;65970;50.476;4.840;2024-02-21T02:08:59;7.75;;;2.67;;
77038;SDS011;65970;50.476;4.840;2024-02-21T02:14:00;5.57;;;2.20;;
77038;SDS011;65970;50.476;4.840;2024-02-21T02:19:00;6.70;;;2.58;;
77038;SDS011;65970;50.476;4.840;2024-02-21T02:24:01;3.63;;;1.95;;
77038;SDS011;65970;50.476;4.840;2024-02-21T02:29:02;10.70;;;2.45;;
77038;SDS011;65970;50.476;4.840;2024-02-21T02:34:02;4.70;;;2.58;;
77038;SDS011;65970;50.476;4.840;2024-02-21T02:39:03;6.63;;;2.55;;
77038;SDS011;65970;50.476;4.840;2024-02-21T02:44:03;6.07;;;3.67;;
77038;SDS011;65970;50.476;4.840;2024-02-21T02:49:04;7.97;;;2.55;;
77038;SDS011;65970;50.476;4.840;2024-02-21T02:54:04;7.90;;;2.42;;
77038;SDS011;65970;50.476;4.840;2024-02-21T02:59:05;6.60;;;2.63;;
77038;SDS011;65970;50.476;4.840;2024-02-21T03:04:07;7.20;;;2.33;;
77038;SDS011;65970;50.476;4.840;2024-02-21T03:09:07;7.20;;;2.47;;
77038;SDS011;65970;50.476;4.840;2024-02-21T03:14:08;6.88;;;2.15;;
77038;SDS011;65970;50.476;4.840;2024-02-21T03:19:08;8.32;;;2.53;;
77038;SDS011;65970;50.476;4.840;2024-02-21T03:24:09;4.28;;;2.65;;
77038;SDS011;65970;50.476;4.840;2024-02-21T03:29:10;4.70;;;2.28;;
77038;SDS011;65970;50.476;4.840;2024-02-21T03:34:11;7.20;;;2.05;;
77038;SDS011;65970;50.476;4.840;2024-02-21T03:39:11;5.22;;;2.50;;
77038;SDS011;65970;50.476;4.840;2024-02-21T03:44:12;3.03;;;1.95;;
77038;SDS011;65970;50.476;4.840;2024-02-21T03:49:12;4.90;;;2.33;;
77038;SDS011;65970;50.476;4.840;2024-02-21T03:54:13;7.13;;;2.33;;
77038;SDS011;65970;50.476;4.840;2024-02-21T03:59:13;7.35;;;2.05;;
77038;SDS011;65970;50.476;4.840;2024-02-21T04:04:14;6.07;;;2.25;;
77038;SDS011;65970;50.476;4.840;2024-02-21T04:09:15;6.55;;;2.28;;
77038;SDS011;65970;50.476;4.840;2024-02-21T04:14:16;5.35;;;1.67;;
77038;SDS011;65970;50.476;4.840;2024-02-21T04:19:16;2.85;;;1.83;;
77038;SDS011;65970;50.476;4.840;2024-02-21T04:24:17;2.22;;;1.92;;
77038;SDS011;65970;50.476;4.840;2024-02-21T04:29:17;6.57;;;2.03;;
77038;SDS011;65970;50.476;4.840;2024-02-21T04:34:18;4.50;;;2.08;;
77038;SDS011;65970;50.476;4.840;2024-02-21T04:39:18;6.00;;;2.20;;
77038;SDS011;65970;50.476;4.840;2024-02-21T04:44:19;4.75;;;2.15;;
77038;SDS011;65970;50.476;4.840;2024-02-21T04:49:19;3.05;;;1.50;;
77038;SDS011;65970;50.476;4.840;2024-02-21T04:54:20;3.97;;;1.85;;
77038;SDS011;65970;50.476;4.840;2024-02-21T04:59:20;5.82;;;2.53;;
77038;SDS011;65970;50.476;4.840;2024-02-21T05:04:21;9.18;;;2.17;;
77038;SDS011;65970;50.476;4.840;2024-02-21T05:09:21;3.67;;;2.20;;
77038;SDS011;65970;50.476;4.840;2024-02-21T05:14:22;4.32;;;2.50;;
77038;SDS011;65970;50.476;4.840;2024-02-21T05:19:22;6.95;;;2.45;;
77038;SDS011;65970;50.476;4.840;2024-02-21T05:24:23;4.03;;;2.50;;
77038;SDS011;65970;50.476;4.840;2024-02-21T05:29:23;5.25;;;2.63;;
77038;SDS011;65970;50.476;4.840;2024-02-21T05:34:24;6.43;;;3.42;;
77038;SDS011;65970;50.476;4.840;2024-02-21T05:39:25;5.13;;;2.60;;
77038;SDS011;65970;50.476;4.840;2024-02-21T05:44:25;4.20;;;2.47;;
77038;SDS011;65970;50.476;4.840;2024-02-21T05:49:26;5.22;;;2.65;;
77038;SDS011;65970;50.476;4.840;2024-02-21T05:54:26;6.55;;;2.90;;
77038;SDS011;65970;50.476;4.840;2024-02-21T05:59:27;3.50;;;2.47;;
77038;SDS011;65970;50.476;4.840;2024-02-21T06:04:28;4.25;;;2.13;;
77038;SDS011;65970;50.476;4.840;2024-02-21T06:09:28;6.63;;;2.10;;
77038;SDS011;65970;50.476;4.840;2024-02-21T06:14:29;2.97;;;1.92;;
77038;SDS011;65970;50.476;4.840;2024-02-21T06:19:29;5.10;;;2.17;;
77038;SDS011;65970;50.476;4.840;2024-02-21T06:24:30;4.95;;;2.42;;
77038;SDS011;65970;50.476;4.840;2024-02-21T06:29:30;6.28;;;2.88;;
77038;SDS011;65970;50.476;4.840;2024-02-21T06:34:31;4.55;;;2.28;;
77038;SDS011;65970;50.476;4.840;2024-02-21T06:39:31;2.95;;;1.90;;
77038;SDS011;65970;50.476;4.840;2024-02-21T06:44:32;4.00;;;2.45;;
77038;SDS011;65970;50.476;4.840;2024-02-21T06:49:32;6.80;;;3.05;;
77038;SDS011;65970;50.476;4.840;2024-02-21T06:54:34;6.18;;;2.97;;
77038;SDS011;65970;50.476;4.840;2024-02-21T06:59:34;4.47;;;2.05;;
77038;SDS011;65970;50.476;4.840;2024-02-21T07:04:35;2.83;;;1.98;;
77038;SDS011;65970;50.476;4.840;2024-02-21T07:09:35;4.10;;;2.55;;
77038;SDS011;65970;50.476;4.840;2024-02-21T07:14:36;4.50;;;1.90;;
77038;SDS011;65970;50.476;4.840;2024-02-21T07:19:36;8.15;;;3.60;;
77038;SDS011;65970;50.476;4.840;2024-02-21T07:24:37;3.95;;;2.65;;
77038;SDS011;65970;50.476;4.840;2024-02-21T07:29:37;3.72;;;1.63;;
77038;SDS011;65970;50.476;4.840;2024-02-21T07:34:38;4.45;;;2.15;;
77038;SDS011;65970;50.476;4.840;2024-02-21T07:39:38;4.50;;;2.08;;
77038;SDS011;65970;50.476;4.840;2024-02-21T07:44:39;8.45;;;3.50;;
77038;SDS011;65970;50.476;4.840;2024-02-21T07:49:43;7.38;;;3.55;;
77038;SDS011;65970;50.476;4.840;2024-02-21T07:54:44;5.78;;;2.42;;
77038;SDS011;65970;50.476;4.840;2024-02-21T07:59:45;6.75;;;2.38;;
77038;SDS011;65970;50.476;4.840;2024-02-21T08:04:45;3.95;;;2.63;;
77038;SDS011;65970;50.476;4.840;2024-02-21T08:09:46;3.88;;;2.22;;
77038;SDS011;65970;50.476;4.840;2024-02-21T08:14:46;5.32;;;2.20;;
77038;SDS011;65970;50.476;4.840;2024-02-21T08:19:47;3.95;;;2.22;;
77038;SDS011;65970;50.476;4.840;2024-02-21T08:24:47;6.90;;;1.55;;
77038;SDS011;65970;50.476;4.840;2024-02-21T08:29:48;2.25;;;1.52;;
77038;SDS011;65970;50.476;4.840;2024-02-21T08:34:48;3.92;;;1.70;;
77038;SDS011;65970;50.476;4.840;2024-02-21T08:39:49;5.82;;;1.75;;
77038;SDS011;65970;50.476;4.840;2024-02-21T08:44:49;6.22;;;2.30;;
77038;SDS011;65970;50.476;4.840;2024-02-21T08:49:50;2.05;;;1.67;;
77038;SDS011;65970;50.476;4.840;2024-02-21T08:54:50;5.72;;;2.40;;
77038;SDS011;65970;50.476;4.840;2024-02-21T08:59:51;2.70;;;2.17;;
77038;SDS011;65970;50.476;4.840;2024-02-21T09:04:51;7.18;;;2.75;;
77038;SDS011;65970;50.476;4.840;2024-02-21T09:09:52;4.70;;;1.98;;
77038;SDS011;65970;50.476;4.840;2024-02-21T09:14:52;4.38;;;1.80;;
77038;SDS011;65970;50.476;4.840;2024-02-21T09:19:53;3.70;;;2.33;;
77038;SDS011;65970;50.476;4.840;2024-02-21T09:24:56;5.15;;;1.92;;
77038;SDS011;65970;50.476;4.840;2024-02-21T09:29:56;6.28;;;2.42;;
77038;SDS011;65970;50.476;4.840;2024-02-21T09:34:57;2.58;;;1.65;;
77038;SDS011;65970;50.476;4.840;2024-02-21T09:39:57;4.82;;;2.28;;
77038;SDS011;65970;50.476;4.840;2024-02-21T09:44:58;6.07;;;1.85;;
77038;SDS011;65970;50.476;4.840;2024-02-21T09:49:59;6.70;;;1.80;;
77038;SDS011;65970;50.476;4.840;2024-02-21T09:55:04;5.13;;;2.25;;
77038;SDS011;65970;50.476;4.840;2024-02-21T10:00:07;3.08;;;1.25;;
77038;SDS011;65970;50.476;4.840;2024-02-21T10:05:08;3.00;;;2.17;;
77038;SDS011;65970;50.476;4.840;2024-02-21T10:10:09;2.75;;;1.67;;
77038;SDS011;65970;50.476;4.840;2024-02-21T10:15:10;4.35;;;1.60;;
77038;SDS011;65970;50.476;4.840;2024-02-21T10:20:11;2.85;;;2.05;;
77038;SDS011;65970;50.476;4.840;2024-02-21T10:25:12;6.32;;;1.88;;
77038;SDS011;65970;50.476;4.840;2024-02-21T10:30:13;4.80;;;1.95;;
77038;SDS011;65970;50.476;4.840;2024-02-21T10:35:14;1.45;;;1.05;;
77038;SDS011;65970;50.476;4.840;2024-02-21T10:40:25;2.63;;;1.65;;
77038;SDS011;65970;50.476;4.840;2024-02-21T10:45:36;2.20;;;0.82;;
77038;SDS011;65970;50.476;4.840;2024-02-21T10:51:20;1.98;;;1.75;;
77038;SDS011;65970;50.476;4.840;2024-02-21T11:01:28;2.63;;;1.10;;
77038;SDS011;65970;50.476;4.840;2024-02-21T11:06:29;1.25;;;0.82;;
77038;SDS011;65970;50.476;4.840;2024-02-21T11:11:34;2.50;;;1.17;;
77038;SDS011;65970;50.476;4.840;2024-02-21T11:16:35;3.40;;;1.63;;
77038;SDS011;65970;50.476;4.840;2024-02-21T11:21:40;2.80;;;1.35;;
77038;SDS011;65970;50.476;4.840;2024-02-21T11:26:40;1.92;;;1.23;;
77038;SDS011;65970;50.476;4.840;2024-02-21T11:31:42;6.32;;;1.35;;
77038;SDS011;65970;50.476;4.840;2024-02-21T11:36:50;1.13;;;0.75;;
77038;SDS011;65970;50.476;4.840;2024-02-21T11:42:01;2.15;;;1.45;;
77038;SDS011;65970;50.476;4.840;2024-02-21T11:47:03;1.75;;;1.25;;
77038;SDS011;65970;50.476;4.840;2024-02-21T11:52:04;2.30;;;0.82;;
77038;SDS011;65970;50.476;4.840;2024-02-21T11:57:05;0.75;;;0.73;;
77038;SDS011;65970;50.476;4.840;2024-02-21T12:02:06;3.40;;;1.20;;
77038;SDS011;65970;50.476;4.840;2024-02-21T12:07:07;1.90;;;0.98;;
77038;SDS011;65970;50.476;4.840;2024-02-21T12:12:08;1.95;;;1.20;;
77038;SDS011;65970;50.476;4.840;2024-02-21T12:17:09;2.47;;;1.38;;
77038;SDS011;65970;50.476;4.840;2024-02-21T12:22:09;2.10;;;1.08;;
77038;SDS011;65970;50.476;4.840;2024-02-21T12:27:18;1.60;;;0.95;;
77038;SDS011;65970;50.476;4.840;2024-02-21T12:32:18;1.38;;;1.10;;
77038;SDS011;65970;50.476;4.840;2024-02-21T12:37:19;2.25;;;0.98;;
77038;SDS011;65970;50.476;4.840;2024-02-21T12:42:19;1.35;;;0.98;;
77038;SDS011;65970;50.476;4.840;2024-02-21T12:47:20;2.25;;;1.02;;
77038;SDS011;65970;50.476;4.840;2024-02-21T12:52:21;1.55;;;1.38;;
77038;SDS011;65970;50.476;4.840;2024-02-21T12:57:21;1.40;;;0.88;;
77038;SDS011;65970;50.476;4.840;2024-02-21T13:02:22;1.63;;;1.10;;
77038;SDS011;65970;50.476;4.840;2024-02-21T13:07:22;2.03;;;1.08;;
77038;SDS011;65970;50.476;4.840;2024-02-21T13:12:23;3.63;;;1.13;;
77038;SDS011;65970;50.476;4.840;2024-02-21T13:17:23;2.92;;;0.95;;
77038;SDS011;65970;50.476;4.840;2024-02-21T13:22:24;1.75;;;0.88;;
77038;SDS011;65970;50.476;4.840;2024-02-21T13:27:26;1.40;;;1.00;;
77038;SDS011;65970;50.476;4.840;2024-02-21T13:32:27;1.00;;;0.87;;
77038;SDS011;65970;50.476;4.840;2024-02-21T13:37:27;1.27;;;1.02;;
77038;SDS011;65970;50.476;4.840;2024-02-21T13:42:28;4.10;;;0.85;;
77038;SDS011;65970;50.476;4.840;2024-02-21T13:47:29;3.35;;;1.17;;
77038;SDS011;65970;50.476;4.840;2024-02-21T13:52:30;1.02;;;1.02;;
77038;SDS011;65970;50.476;4.840;2024-02-21T13:57:30;1.73;;;1.15;;
77038;SDS011;65970;50.476;4.840;2024-02-21T14:02:31;1.55;;;1.17;;
77038;SDS011;65970;50.476;4.840;2024-02-21T14:07:32;1.15;;;0.80;;
77038;SDS011;65970;50.476;4.840;2024-02-21T14:12:32;2.28;;;1.52;;
77038;SDS011;65970;50.476;4.840;2024-02-21T14:17:33;2.55;;;1.35;;
77038;SDS011;65970;50.476;4.840;2024-02-21T14:22:33;1.30;;;0.98;;
77038;SDS011;65970;50.476;4.840;2024-02-21T14:27:34;2.00;;;1.15;;
77038;SDS011;65970;50.476;4.840;2024-02-21T14:32:35;1.33;;;1.23;;
77038;SDS011;65970;50.476;4.840;2024-02-21T14:37:35;2.50;;;1.33;;
77038;SDS011;65970;50.476;4.840;2024-02-21T14:42:36;3.35;;;1.83;;
77038;SDS011;65970;50.476;4.840;2024-02-21T14:47:36;1.92;;;1.42;;
77038;SDS011;65970;50.476;4.840;2024-02-21T14:52:37;2.42;;;0.77;;
77038;SDS011;65970;50.476;4.840;2024-02-21T14:57:37;3.92;;;1.38;;
77038;SDS011;65970;50.476;4.840;2024-02-21T15:02:38;1.58;;;1.02;;
77038;SDS011;65970;50.476;4.840;2024-02-21T15:07:39;2.20;;;1.30;;
77038;SDS011;65970;50.476;4.840;2024-02-21T15:12:39;5.00;;;1.75;;
77038;SDS011;65970;50.476;4.840;2024-02-21T15:17:40;6.90;;;2.33;;
77038;SDS011;65970;50.476;4.840;2024-02-21T15:22:40;3.28;;;1.35;;
77038;SDS011;65970;50.476;4.840;2024-02-21T15:27:44;4.28;;;1.52;;
77038;SDS011;65970;50.476;4.840;2024-02-21T15:32:45;3.25;;;1.65;;
77038;SDS011;65970;50.476;4.840;2024-02-21T15:37:45;1.98;;;1.45;;
77038;SDS011;65970;50.476;4.840;2024-02-21T15:42:46;1.25;;;0.95;;
77038;SDS011;65970;50.476;4.840;2024-02-21T15:47:46;2.20;;;1.08;;
77038;SDS011;65970;50.476;4.840;2024-02-21T15:52:47;6.15;;;1.50;;
77038;SDS011;65970;50.476;4.840;2024-02-21T15:57:47;2.28;;;1.02;;
77038;SDS011;65970;50.476;4.840;2024-02-21T16:02:48;6.05;;;1.42;;
77038;SDS011;65970;50.476;4.840;2024-02-21T16:07:48;1.40;;;0.90;;
77038;SDS011;65970;50.476;4.840;2024-02-21T16:12:49;1.30;;;1.00;;
77038;SDS011;65970;50.476;4.840;2024-02-21T16:17:49;1.48;;;1.10;;
77038;SDS011;65970;50.476;4.840;2024-02-21T16:22:50;3.88;;;1.63;;
77038;SDS011;65970;50.476;4.840;2024-02-21T16:27:50;2.25;;;1.60;;
77038;SDS011;65970;50.476;4.840;2024-02-21T16:32:51;3.40;;;1.48;;
77038;SDS011;65970;50.476;4.840;2024-02-21T16:37:52;2.25;;;1.00;;
77038;SDS011;65970;50.476;4.840;2024-02-21T16:42:52;1.75;;;1.58;;
77038;SDS011;65970;50.476;4.840;2024-02-21T16:47:53;1.73;;;1.48;;
77038;SDS011;65970;50.476;4.840;2024-02-21T16:52:53;4.03;;;1.55;;
77038;SDS011;65970;50.476;4.840;2024-02-21T16:57:54;2.38;;;2.17;;
77038;SDS011;65970;50.476;4.840;2024-02-21T17:02:54;2.30;;;1.45;;
77038;SDS011;65970;50.476;4.840;2024-02-21T17:07:55;3.92;;;1.40;;
77038;SDS011;65970;50.476;4.840;2024-02-21T17:12:55;3.70;;;1.52;;
77038;SDS011;65970;50.476;4.840;2024-02-21T17:17:56;3.17;;;1.60;;
77038;SDS011;65970;50.476;4.840;2024-02-21T17:22:56;1.20;;;1.05;;
77038;SDS011;65970;50.476;4.840;2024-02-21T17:27:57;4.68;;;1.40;;
77038;SDS011;65970;50.476;4.840;2024-02-21T17:32:57;0.85;;;0.82;;
77038;SDS011;65970;50.476;4.840;2024-02-21T17:37:58;2.75;;;1.30;;
77038;SDS011;65970;50.476;4.840;2024-02-21T17:42:58;0.90;;;0.90;;
77038;SDS011;65970;50.476;4.840;2024-02-21T17:47:59;0.95;;;0.77;;
77038;SDS011;65970;50.476;4.840;2024-02-21T17:52:59;2.40;;;1.80;;
77038;SDS011;65970;50.476;4.840;2024-02-21T17:58:00;4.70;;;1.23;;
77038;SDS011;65970;50.476;4.840;2024-02-21T18:03:00;1.00;;;0.93;;
77038;SDS011;65970;50.476;4.840;2024-02-21T18:08:01;2.45;;;1.02;;
77038;SDS011;65970;50.476;4.840;2024-02-21T18:13:02;0.63;;;0.63;;
77038;SDS011;65970;50.476;4.840;2024-02-21T18:18:02;1.15;;;0.88;;
77038;SDS011;65970;50.476;4.840;2024-02-21T18:23:03;1.55;;;0.85;;
77038;SDS011;65970;50.476;4.840;2024-02-21T18:28:03;2.97;;;1.42;;
77038;SDS011;65970;50.476;4.840;2024-02-21T18:33:04;0.85;;;0.60;;
77038;SDS011;65970;50.476;4.840;2024-02-21T18:38:05;0.93;;;0.93;;
77038;SDS011;65970;50.476;4.840;2024-02-21T18:43:05;0.95;;;0.80;;
77038;SDS011;65970;50.476;4.840;2024-02-21T18:48:06;1.50;;;0.68;;
77038;SDS011;65970;50.476;4.840;2024-02-21T18:53:07;3.05;;;0.77;;
77038;SDS011;65970;50.476;4.840;2024-02-21T18:58:07;1.73;;;1.63;;
77038;SDS011;65970;50.476;4.840;2024-02-21T19:03:08;0.70;;;0.70;;
77038;SDS011;65970;50.476;4.840;2024-02-21T19:08:08;0.82;;;0.70;;
77038;SDS011;65970;50.476;4.840;2024-02-21T19:13:09;0.50;;;0.43;;
77038;SDS011;65970;50.476;4.840;2024-02-21T19:18:09;0.82;;;0.70;;
77038;SDS011;65970;50.476;4.840;2024-02-21T19:23:10;0.38;;;0.38;;
77038;SDS011;65970;50.476;4.840;2024-02-21T19:28:10;0.57;;;0.45;;
77038;SDS011;65970;50.476;4.840;2024-02-21T19:33:11;1.33;;;0.70;;
77038;SDS011;65970;50.476;4.840;2024-02-21T19:38:12;0.60;;;0.50;;
77038;SDS011;65970;50.476;4.840;2024-02-21T19:43:13;0.45;;;0.40;;
77038;SDS011;65970;50.476;4.840;2024-02-21T19:48:13;0.20;;;0.20;;
77038;SDS011;65970;50.476;4.840;2024-02-21T19:53:14;0.50;;;0.32;;
77038;SDS011;65970;50.476;4.840;2024-02-21T19:58:14;0.45;;;0.45;;
77038;SDS011;65970;50.476;4.840;2024-02-21T20:03:15;0.30;;;0.30;;
77038;SDS011;65970;50.476;4.840;2024-02-21T20:08:15;0.40;;;0.38;;
77038;SDS011;65970;50.476;4.840;2024-02-21T20:13:16;0.30;;;0.20;;
77038;SDS011;65970;50.476;4.840;2024-02-21T20:18:17;0.30;;;0.30;;
77038;SDS011;65970;50.476;4.840;2024-02-21T20:23:17;0.20;;;0.20;;
77038;SDS011;65970;50.476;4.840;2024-02-21T20:28:18;0.43;;;0.28;;
77038;SDS011;65970;50.476;4.840;2024-02-21T20:33:18;0.25;;;0.25;;
77038;SDS011;65970;50.476;4.840;2024-02-21T20:38:19;0.95;;;0.40;;
77038;SDS011;65970;50.476;4.840;2024-02-21T20:43:19;0.82;;;0.30;;
77038;SDS011;65970;50.476;4.840;2024-02-21T20:48:20;0.22;;;0.22;;
77038;SDS011;65970;50.476;4.840;2024-02-21T20:53:20;0.30;;;0.30;;
77038;SDS011;65970;50.476;4.840;2024-02-21T20:58:21;0.20;;;0.20;;
77038;SDS011;65970;50.476;4.840;2024-02-21T21:03:22;0.28;;;0.20;;
77038;SDS011;65970;50.476;4.840;2024-02-21T21:08:22;0.20;;;0.20;;
77038;SDS011;65970;50.476;4.840;2024-02-21T21:13:23;0.40;;;0.28;;
77038;SDS011;65970;50.476;4.840;2024-02-21T21:18:23;0.20;;;0.20;;
77038;SDS011;65970;50.476;4.840;2024-02-21T21:23:24;0.20;;;0.10;;
77038;SDS011;65970;50.476;4.840;2024-02-21T21:28:24;0.30;;;0.20;;
77038;SDS011;65970;50.476;4.840;2024-02-21T21:33:25;0.30;;;0.17;;
77038;SDS011;65970;50.476;4.840;2024-02-21T21:38:25;0.20;;;0.20;;
77038;SDS011;65970;50.476;4.840;2024-02-21T21:43:26;0.63;;;0.35;;
77038;SDS011;65970;50.476;4.840;2024-02-21T21:48:26;0.10;;;0.10;;
77038;SDS011;65970;50.476;4.840;2024-02-21T21:53:27;0.13;;;0.10;;
77038;SDS011;65970;50.476;4.840;2024-02-21T21:58:27;0.10;;;0.10;;
77038;SDS011;65970;50.476;4.840;2024-02-21T22:03:28;0.20;;;0.20;;
77038;SDS011;65970;50.476;4.840;2024-02-21T22:08:28;0.47;;;0.20;;
77038;SDS011;65970;50.476;4.840;2024-02-21T22:13:29;0.10;;;0.10;;
77038;SDS011;65970;50.476;4.840;2024-02-21T22:18:29;0.20;;;0.20;;
77038;SDS011;65970;50.476;4.840;2024-02-21T22:23:30;0.22;;;0.17;;
77038;SDS011;65970;50.476;4.840;2024-02-21T22:28:31;0.13;;;0.13;;
77038;SDS011;65970;50.476;4.840;2024-02-21T22:33:31;0.20;;;0.20;;
77038;SDS011;65970;50.476;4.840;2024-02-21T22:38:32;0.30;;;0.10;;
77038;SDS011;65970;50.476;4.840;2024-02-21T22:43:32;0.25;;;0.20;;
77038;SDS011;65970;50.476;4.840;2024-02-21T22:48:33;0.10;;;0.10;;
77038;SDS011;65970;50.476;4.840;2024-02-21T22:53:33;0.10;;;0.10;;
77038;SDS011;65970;50.476;4.840;2024-02-21T22:58:34;0.90;;;0.20;;
77038;SDS011;65970;50.476;4.840;2024-02-21T23:03:34;0.05;;;0.05;;
77038;SDS011;65970;50.476;4.840;2024-02-21T23:08:35;0.10;;;0.10;;
77038;SDS011;65970;50.476;4.840;2024-02-21T23:13:35;0.10;;;0.10;;
77038;SDS011;65970;50.476;4.840;2024-02-21T23:18:36;0.10;;;0.10;;
77038;SDS011;65970;50.476;4.840;2024-02-21T23:23:37;0.20;;;0.10;;
77038;SDS011;65970;50.476;4.840;2024-02-21T23:28:41;0.13;;;0.13;;
77038;SDS011;65970;50.476;4.840;2024-02-21T23:33:42;0.30;;;0.20;;
77038;SDS011;65970;50.476;4.840;2024-02-21T23:38:43;0.22;;;0.10;;
77038;SDS011;65970;50.476;4.840;2024-02-21T23:43:44;0.10;;;0.10;;
77038;SDS011;65970;50.476;4.840;2024-02-21T23:48:44;0.20;;;0.10;;
77038;SDS011;65970;50.476;4.840;2024-02-21T23:53:45;0.20;;;0.20;;
77038;SDS011;65970;50.476;4.840;2024-02-21T23:58:45;0.10;;;0.10;;
